Time;durP1;ratioP1;P1;durP2;ratioP2;P2;SDS_P1;SDS_P2;PMS_P1;PMS_P2;Temp;Humidity;BMP_temperature;BMP_pressure;BME280_temperature;BME280_humidity;BME280_pressure;Samples;Min_cycle;Max_cycle;Signal;HPM_P1;HPM_P2
2023/03/29 00:00:02;;;;;;;4.40;2.60;;;7.80;99.90;;;;;;4955066;28;98601;-75
2023/03/29 00:02:37;;;;;;;3.42;3.10;;;7.80;99.90;;;;;;4956046;28;98628;-75
2023/03/29 00:05:05;;;;;;;4.53;3.10;;;7.80;99.90;;;;;;4954231;28;101175;-75
2023/03/29 00:07:32;;;;;;;5.22;2.90;;;7.80;99.90;;;;;;4954797;28;99557;-75
2023/03/29 00:10:01;;;;;;;4.25;2.53;;;7.80;99.90;;;;;;4954908;28;98556;-75
2023/03/29 00:12:28;;;;;;;3.63;3.15;;;7.80;99.90;;;;;;4956038;28;98538;-75
2023/03/29 00:14:55;;;;;;;4.50;3.10;;;7.80;99.90;;;;;;4953832;28;102922;-75
2023/03/29 00:17:22;;;;;;;3.35;2.95;;;7.80;99.90;;;;;;4955455;28;99926;-75
2023/03/29 00:19:49;;;;;;;5.25;3.15;;;7.70;99.90;;;;;;4955868;28;98553;-75
2023/03/29 00:22:16;;;;;;;4.85;3.15;;;7.70;99.90;;;;;;4938588;28;98621;-75
2023/03/29 00:24:46;;;;;;;5.03;3.08;;;7.70;99.90;;;;;;4953897;28;100213;-75
2023/03/29 00:27:16;;;;;;;3.60;2.85;;;7.70;99.90;;;;;;4955395;28;99070;-75
2023/03/29 00:29:43;;;;;;;3.85;3.53;;;7.60;99.90;;;;;;4953661;28;98618;-75
2023/03/29 00:32:10;;;;;;;4.55;3.75;;;7.60;99.90;;;;;;4938536;28;97806;-75
2023/03/29 00:34:41;;;;;;;5.90;3.58;;;7.60;99.90;;;;;;4970214;28;102123;-75
2023/03/29 00:37:08;;;;;;;5.10;3.63;;;7.60;99.90;;;;;;4955681;28;99860;-75
2023/03/29 00:39:36;;;;;;;4.90;3.20;;;7.60;99.90;;;;;;4970565;28;99419;-75
2023/03/29 00:42:03;;;;;;;3.75;3.20;;;7.60;99.90;;;;;;4954208;28;98660;-75
2023/03/29 00:44:52;;;;;;;4.55;3.40;;;7.50;99.90;;;;;;4953770;28;101788;-75
2023/03/29 00:47:34;;;;;;;3.38;3.08;;;7.60;99.90;;;;;;4955165;28;98928;-75
2023/03/29 00:50:11;;;;;;;4.80;3.40;;;7.60;99.90;;;;;;4955683;28;98529;-75
2023/03/29 00:52:40;;;;;;;4.57;3.08;;;7.60;99.90;;;;;;4954260;28;98647;-75
2023/03/29 00:55:12;;;;;;;3.05;2.75;;;7.50;99.90;;;;;;4953367;28;102066;-75
2023/03/29 00:57:45;;;;;;;5.15;2.97;;;7.50;99.90;;;;;;4970713;28;99172;-75
2023/03/29 01:00:19;;;;;;;4.90;3.72;;;7.50;99.90;;;;;;4954436;28;98633;-75
2023/03/29 01:02:52;;;;;;;4.55;3.00;;;7.50;99.90;;;;;;4970399;28;99237;-74
2023/03/29 01:05:34;;;;;;;3.53;3.22;;;7.50;99.90;;;;;;4968381;28;101214;-75
2023/03/29 01:08:18;;;;;;;3.78;3.35;;;7.50;99.90;;;;;;4937244;28;102306;-75
2023/03/29 01:10:55;;;;;;;3.95;3.55;;;7.50;99.90;;;;;;4970065;28;98547;-74
2023/03/29 01:13:31;;;;;;;4.00;3.15;;;7.60;99.90;;;;;;4970039;28;98588;-75
2023/03/29 01:16:00;;;;;;;4.65;3.45;;;7.60;99.90;;;;;;4953129;28;101332;-75
2023/03/29 01:18:30;;;;;;;5.43;3.55;;;7.60;99.90;;;;;;4921547;28;101456;-75
2023/03/29 01:21:19;;;;;;;7.88;3.45;;;7.60;99.90;;;;;;4937702;28;99043;-75
2023/03/29 01:24:06;;;;;;;5.72;3.92;;;7.60;99.90;;;;;;4953988;28;97829;-75
2023/03/29 01:27:04;;;;;;;3.85;3.13;;;7.50;99.90;;;;;;4953338;28;101727;-75
2023/03/29 01:29:47;;;;;;;6.13;3.17;;;7.50;99.90;;;;;;4954298;28;99003;-75
2023/03/29 01:32:34;;;;;;;5.32;3.05;;;7.60;99.90;;;;;;4969334;28;99242;-75
2023/03/29 01:35:10;;;;;;;4.55;3.70;;;7.50;99.90;;;;;;4937340;28;98517;-75
2023/03/29 01:37:47;;;;;;;4.95;3.40;;;7.50;99.90;;;;;;4954965;28;99352;-75
2023/03/29 01:40:14;;;;;;;3.63;3.33;;;7.50;99.90;;;;;;4969168;28;103233;-75
2023/03/29 01:43:03;;;;;;;6.00;3.30;;;7.50;99.90;;;;;;4969712;28;98600;-75
2023/03/29 01:46:02;;;;;;;5.68;3.63;;;7.50;99.90;;;;;;4954929;28;98423;-75
2023/03/29 01:48:51;;;;;;;5.22;3.70;;;7.60;99.90;;;;;;4943030;28;99977;-75
2023/03/29 01:51:35;;;;;;;6.63;3.53;;;7.50;99.90;;;;;;4952959;28;100051;-75
2023/03/29 01:54:28;;;;;;;3.53;3.03;;;7.50;99.90;;;;;;4969361;28;98603;-75
2023/03/29 01:56:57;;;;;;;4.03;3.63;;;7.50;99.90;;;;;;4942951;28;98716;-75
2023/03/29 01:59:28;;;;;;;5.60;3.92;;;7.50;99.90;;;;;;4952615;28;102562;-75
2023/03/29 02:02:01;;;;;;;4.30;3.63;;;7.50;99.90;;;;;;4952570;28;102577;-75
2023/03/29 02:04:33;;;;;;;5.82;3.67;;;7.60;99.90;;;;;;4954588;28;98419;-75
2023/03/29 02:07:04;;;;;;;6.35;3.65;;;7.60;99.90;;;;;;4953144;28;98499;-75
2023/03/29 02:09:34;;;;;;;8.02;4.40;;;7.60;99.90;;;;;;4952737;28;101871;-75
2023/03/29 02:12:04;;;;;;;4.72;3.88;;;7.60;99.90;;;;;;4952218;28;101360;-75
2023/03/29 02:14:32;;;;;;;4.10;3.65;;;7.60;99.90;;;;;;4936779;28;98580;-75
2023/03/29 02:17:19;;;;;;;5.22;3.90;;;7.70;99.90;;;;;;4952557;28;97842;-75
2023/03/29 02:19:49;;;;;;;6.28;4.45;;;7.70;99.90;;;;;;4952239;28;101302;-75
2023/03/29 02:22:23;;;;;;;5.35;4.13;;;7.60;99.90;;;;;;4952138;28;101716;-75
2023/03/29 02:24:53;;;;;;;4.88;3.67;;;7.70;99.90;;;;;;4952327;28;99347;-74
2023/03/29 02:27:20;;;;;;;7.22;4.57;;;7.60;99.90;;;;;;4952321;28;98547;-75
2023/03/29 02:29:47;;;;;;;6.15;4.93;;;7.60;99.90;;;;;;4968216;28;101980;-75
2023/03/29 02:32:26;;;;;;;6.80;5.25;;;7.60;99.90;;;;;;4952362;28;99115;-75
2023/03/29 02:35:06;;;;;;;5.72;5.18;;;7.70;99.90;;;;;;4952747;28;99621;-75
2023/03/29 02:37:35;;;;;;;6.85;5.30;;;7.60;99.90;;;;;;4952545;28;98649;-75
2023/03/29 02:40:06;;;;;;;8.02;6.00;;;7.60;99.90;;;;;;4920048;28;102101;-75
2023/03/29 02:42:35;;;;;;;9.63;6.15;;;7.60;99.90;;;;;;4952566;28;101612;-75
2023/03/29 02:45:03;;;;;;;7.50;6.40;;;7.60;99.90;;;;;;4952134;28;99116;-75
2023/03/29 02:47:37;;;;;;;8.60;6.28;;;7.60;99.90;;;;;;4952073;28;98603;-75
2023/03/29 02:50:05;;;;;;;9.10;6.45;;;7.60;99.90;;;;;;4951670;28;100082;-75
2023/03/29 02:52:39;;;;;;;9.25;7.15;;;7.60;99.90;;;;;;4936060;28;102269;-75
2023/03/29 02:55:13;;;;;;;9.45;6.93;;;7.60;99.90;;;;;;4968318;28;98478;-75
2023/03/29 02:57:42;;;;;;;;;;;7.70;99.90;;;;;;4968831;28;98770;-75
2023/03/29 03:00:10;;;;;;;9.75;6.53;;;7.60;99.90;;;;;;4952691;28;101807;-75
2023/03/29 03:02:37;;;;;;;10.00;6.70;;;7.50;99.90;;;;;;4951445;28;102092;-75
2023/03/29 03:05:08;;;;;;;10.80;7.45;;;7.60;99.90;;;;;;4952072;28;98576;-75
2023/03/29 03:07:35;;;;;;;10.25;7.38;;;7.60;99.90;;;;;;4952324;28;98380;-75
2023/03/29 03:10:02;;;;;;;11.52;8.00;;;7.60;99.90;;;;;;4951638;28;101693;-75
2023/03/29 03:12:29;;;;;;;10.32;7.50;;;7.60;99.90;;;;;;4951339;28;101849;-75
2023/03/29 03:14:57;;;;;;;10.15;8.60;;;7.50;99.90;;;;;;4951666;28;99290;-75
2023/03/29 03:17:24;;;;;;;11.60;8.10;;;7.60;99.90;;;;;;4951571;28;98652;-75
2023/03/29 03:19:52;;;;;;;12.00;9.02;;;7.60;99.90;;;;;;4952708;28;99438;-75
2023/03/29 03:22:19;;;;;;;11.88;8.18;;;7.60;99.90;;;;;;4951212;28;100136;-75
2023/03/29 03:24:46;;;;;;;14.38;9.02;;;7.60;99.90;;;;;;4968409;28;98601;-74
2023/03/29 03:27:14;;;;;;;15.40;10.52;;;7.70;99.90;;;;;;4950562;28;98604;-75
2023/03/29 03:29:41;;;;;;;13.15;9.20;;;7.70;99.90;;;;;;4934336;28;101602;-75
2023/03/29 03:32:34;;;;;;;13.57;9.77;;;7.70;99.90;;;;;;4953046;28;100143;-75
2023/03/29 03:35:27;;;;;;;15.38;10.13;;;7.70;99.90;;;;;;4951296;28;98638;-75
2023/03/29 03:37:54;;;;;;;11.90;8.68;;;7.70;99.90;;;;;;4952642;28;98838;-75
2023/03/29 03:40:21;;;;;;;11.25;8.68;;;7.70;99.90;;;;;;4966890;28;102237;-74
2023/03/29 03:42:48;;;;;;;13.02;8.43;;;7.70;99.90;;;;;;4951176;28;102310;-75
2023/03/29 03:45:15;;;;;;;14.95;9.73;;;7.70;99.90;;;;;;4951488;28;98565;-75
2023/03/29 03:47:57;;;;;;;13.07;10.00;;;7.70;99.90;;;;;;4951580;28;98731;-74
2023/03/29 03:50:51;;;;;;;12.13;9.20;;;7.70;99.90;;;;;;4967210;28;101996;-75
2023/03/29 03:53:18;;;;;;;14.35;9.75;;;7.80;99.90;;;;;;4950924;28;101479;-75
2023/03/29 03:56:07;;;;;;;12.95;9.63;;;7.70;99.90;;;;;;4952526;28;98595;-75
2023/03/29 03:58:46;;;;;;;11.65;9.45;;;7.70;99.90;;;;;;4968403;28;98293;-75
2023/03/29 04:01:16;;;;;;;14.20;9.35;;;7.70;99.90;;;;;;4950895;28;101871;-75
2023/03/29 04:03:53;;;;;;;14.15;10.05;;;7.70;99.90;;;;;;4966188;28;101153;-75
2023/03/29 04:06:21;;;;;;;16.13;9.82;;;7.70;99.90;;;;;;4934428;28;99334;-74
2023/03/29 04:09:08;;;;;;;14.43;10.18;;;7.70;99.90;;;;;;4952720;28;98525;-75
2023/03/29 04:11:38;;;;;;;12.50;9.57;;;7.70;99.90;;;;;;4966897;28;101687;-75
2023/03/29 04:14:06;;;;;;;12.68;10.20;;;7.70;99.90;;;;;;4950909;28;101558;-75
2023/03/29 04:16:53;;;;;;;15.27;10.10;;;7.70;99.90;;;;;;4951800;28;98656;-74
2023/03/29 04:19:43;;;;;;;12.30;8.93;;;7.80;99.90;;;;;;4967211;28;98601;-75
2023/03/29 04:22:10;;;;;;;15.52;10.18;;;7.80;99.90;;;;;;4950836;28;102053;-75
2023/03/29 04:24:37;;;;;;;13.32;10.55;;;7.70;99.90;;;;;;4950418;28;101398;-75
2023/03/29 04:27:22;;;;;;;11.98;9.63;;;7.70;99.90;;;;;;4950411;28;98602;-75
2023/03/29 04:29:50;;;;;;;15.00;10.27;;;7.70;99.90;;;;;;4950804;28;98600;-75
2023/03/29 04:32:27;;;;;;;12.70;9.05;;;7.70;99.90;;;;;;4966038;28;101434;-75
2023/03/29 04:35:01;;;;;;;13.13;8.80;;;7.80;99.90;;;;;;4935602;28;102071;-75
2023/03/29 04:37:28;;;;;;;11.52;9.52;;;7.70;99.90;;;;;;4950729;28;98498;-75
2023/03/29 04:39:59;;;;;;;11.93;9.32;;;7.70;99.90;;;;;;4953494;28;98580;-75
2023/03/29 04:42:29;;;;;;;11.45;9.25;;;7.80;99.90;;;;;;4969918;28;100403;-75
2023/03/29 04:44:57;;;;;;;11.15;8.90;;;7.80;99.90;;;;;;4970418;28;99016;-75
2023/03/29 04:47:39;;;;;;;10.40;9.30;;;7.80;99.90;;;;;;4953969;28;98573;-75
2023/03/29 04:50:14;;;;;;;10.05;8.80;;;7.80;99.90;;;;;;4971027;28;98310;-75
2023/03/29 04:52:44;;;;;;;10.48;8.52;;;7.80;99.90;;;;;;4969760;28;101561;-75
2023/03/29 04:55:11;;;;;;;14.55;9.18;;;7.80;99.90;;;;;;4953804;28;101441;-75
2023/03/29 04:57:54;;;;;;;11.38;9.77;;;7.90;99.90;;;;;;4968051;28;99351;-75
2023/03/29 05:00:30;;;;;;;14.63;8.85;;;7.90;99.90;;;;;;4953779;28;98630;-75
2023/03/29 05:03:16;;;;;;;12.18;9.68;;;7.90;99.90;;;;;;4955489;28;99097;-75
2023/03/29 05:05:52;;;;;;;13.15;9.00;;;7.90;99.90;;;;;;4953302;28;101151;-74
2023/03/29 05:08:20;;;;;;;13.45;10.18;;;7.90;99.90;;;;;;4953991;28;98521;-75
2023/03/29 05:11:12;;;;;;;13.88;9.75;;;7.80;99.90;;;;;;4934789;28;98684;-75
2023/03/29 05:13:41;;;;;;;11.80;9.55;;;7.90;99.90;;;;;;4952922;28;101296;-74
2023/03/29 05:16:09;;;;;;;11.88;9.75;;;7.90;99.90;;;;;;4953603;28;101303;-75
2023/03/29 05:18:37;;;;;;;13.88;9.55;;;7.90;99.90;;;;;;4969969;28;98501;-75
2023/03/29 05:21:05;;;;;;;12.77;9.68;;;7.90;99.90;;;;;;4953667;28;98567;-74
2023/03/29 05:23:34;;;;;;;14.23;10.57;;;7.90;99.90;;;;;;4952597;28;102578;-75
2023/03/29 05:26:14;;;;;;;14.20;10.38;;;7.90;99.90;;;;;;4954172;28;99682;-75
2023/03/29 05:28:45;;;;;;;13.80;10.10;;;7.90;99.90;;;;;;4968732;28;98644;-75
2023/03/29 05:31:12;;;;;;;13.80;10.27;;;8.00;99.90;;;;;;4969460;28;98592;-75
2023/03/29 05:33:43;;;;;;;16.27;10.13;;;8.00;99.90;;;;;;4968628;28;101246;-75
2023/03/29 05:36:13;;;;;;;14.88;10.27;;;8.00;99.90;;;;;;4936604;28;101069;-75
2023/03/29 05:38:48;;;;;;;17.45;10.13;;;8.00;99.90;;;;;;4968899;28;98620;-75
2023/03/29 05:41:16;;;;;;;13.05;9.07;;;8.00;99.90;;;;;;4969459;28;98059;-75
2023/03/29 05:44:01;;;;;;;16.05;9.98;;;8.10;99.90;;;;;;4952485;28;98727;-75
2023/03/29 05:46:29;;;;;;;13.93;10.05;;;8.10;99.90;;;;;;4968273;28;100964;-75
2023/03/29 05:49:01;;;;;;;14.45;10.80;;;8.10;99.90;;;;;;4968645;28;99274;-75
2023/03/29 05:51:48;;;;;;;12.80;10.25;;;8.10;99.90;;;;;;4967995;28;98596;-75
2023/03/29 05:54:15;;;;;;;15.55;10.20;;;8.20;99.90;;;;;;4968109;28;102059;-75
2023/03/29 05:56:42;;;;;;;14.88;10.98;;;8.20;99.90;;;;;;4936025;28;102079;-75
2023/03/29 05:59:09;;;;;;;14.55;11.10;;;8.20;99.90;;;;;;4968685;28;98537;-75
2023/03/29 06:01:38;;;;;;;12.10;10.00;;;8.20;99.90;;;;;;4968401;28;98626;-75
2023/03/29 06:04:07;;;;;;;16.50;11.60;;;8.20;99.90;;;;;;4968411;28;101595;-75
2023/03/29 06:06:41;;;;;;;14.60;11.88;;;8.20;99.90;;;;;;4968398;28;100139;-75
2023/03/29 06:09:09;;;;;;;16.40;11.82;;;8.20;99.90;;;;;;4953727;28;98586;-75
2023/03/29 06:11:40;;;;;;;18.25;11.82;;;8.20;99.90;;;;;;4967510;28;98635;-75
2023/03/29 06:14:23;;;;;;;15.18;10.60;;;8.20;99.90;;;;;;4951530;28;102112;-75
2023/03/29 06:17:00;;;;;;;14.73;11.70;;;8.20;99.90;;;;;;4968091;28;102218;-75
2023/03/29 06:19:28;;;;;;;19.67;13.27;;;8.20;99.90;;;;;;4968543;28;98518;-76
2023/03/29 06:21:55;;;;;;;15.98;11.82;;;8.20;99.90;;;;;;4968289;28;98859;-75
2023/03/29 06:24:25;;;;;;;16.33;12.52;;;8.20;99.90;;;;;;4951894;28;101344;-75
2023/03/29 06:27:00;;;;;;;17.42;11.80;;;8.20;99.90;;;;;;4951748;28;101159;-75
2023/03/29 06:29:28;;;;;;;17.98;11.75;;;8.30;99.90;;;;;;4935398;28;98656;-75
2023/03/29 06:31:56;;;;;;;14.23;11.90;;;8.30;99.90;;;;;;4968411;28;97900;-75
2023/03/29 06:34:46;;;;;;;17.15;11.57;;;8.30;99.90;;;;;;4947115;28;100121;-76
2023/03/29 06:37:27;;;;;;;18.83;12.25;;;8.30;99.90;;;;;;4937316;28;101258;-75
2023/03/29 06:40:12;;;;;;;13.90;12.00;;;8.30;99.90;;;;;;4937539;28;99771;-75
2023/03/29 06:42:44;;;;;;;18.40;12.05;;;8.30;99.90;;;;;;4967818;28;98627;-75
2023/03/29 06:45:33;;;;;;;16.83;12.05;;;8.40;99.90;;;;;;4952725;28;98793;-76
2023/03/29 06:48:05;;;;;;;15.40;12.07;;;8.50;99.90;;;;;;4967105;28;101545;-76
2023/03/29 06:50:33;;;;;;;14.90;12.43;;;8.50;99.90;;;;;;4951727;28;98562;-75
2023/03/29 06:53:12;;;;;;;17.95;12.32;;;8.50;99.90;;;;;;4966501;28;98635;-75
2023/03/29 06:55:40;;;;;;;17.10;12.77;;;8.60;99.90;;;;;;4967350;28;101291;-75
2023/03/29 06:58:30;;;;;;;15.25;12.45;;;8.70;99.90;;;;;;4942301;28;99944;-75
2023/03/29 07:01:05;;;;;;;15.55;12.50;;;8.60;99.90;;;;;;4951204;28;98627;-75
2023/03/29 07:03:44;;;;;;;16.95;12.30;;;8.70;99.90;;;;;;4967817;28;98590;-75
2023/03/29 07:06:13;;;;;;;15.75;11.15;;;8.60;99.90;;;;;;4966904;28;102358;-75
2023/03/29 07:08:45;;;;;;;15.13;10.75;;;8.70;99.90;;;;;;4966913;28;102545;-75
2023/03/29 07:11:35;;;;;;;16.05;12.05;;;8.70;99.90;;;;;;4951481;28;98531;-75
2023/03/29 07:14:18;;;;;;;12.82;10.60;;;8.70;99.90;;;;;;4967850;28;99268;-75
2023/03/29 07:16:45;;;;;;;14.90;11.10;;;8.80;99.90;;;;;;4950427;28;101997;-75
2023/03/29 07:19:18;;;;;;;15.25;11.82;;;8.80;99.90;;;;;;4935695;28;101400;-75
2023/03/29 07:22:06;;;;;;;14.02;11.38;;;8.90;99.90;;;;;;4951330;28;98620;-75
2023/03/29 07:24:43;;;;;;;15.40;10.85;;;9.00;99.90;;;;;;4967893;28;97895;-76
2023/03/29 07:27:11;;;;;;;14.82;10.95;;;9.10;99.90;;;;;;4951050;28;99379;-75
2023/03/29 07:29:38;;;;;;;12.85;10.32;;;9.20;99.90;;;;;;4966667;28;101339;-76
2023/03/29 07:32:06;;;;;;;17.92;11.25;;;9.30;99.90;;;;;;4950859;28;99417;-75
2023/03/29 07:34:55;;;;;;;12.82;9.93;;;9.30;99.90;;;;;;4938077;28;98724;-75
2023/03/29 07:37:30;;;;;;;14.00;10.30;;;9.40;99.90;;;;;;4950850;28;101776;-75
2023/03/29 07:40:00;;;;;;;15.45;10.90;;;9.40;99.90;;;;;;4967113;28;101618;-75
2023/03/29 07:42:52;;;;;;;14.35;10.40;;;9.40;99.90;;;;;;4953618;28;99018;-75
2023/03/29 07:45:23;;;;;;;13.43;10.20;;;9.40;99.90;;;;;;4935067;28;99144;-75
2023/03/29 07:48:02;;;;;;;16.48;10.38;;;9.40;99.90;;;;;;4935758;28;101848;-75
2023/03/29 07:50:51;;;;;;;13.77;10.15;;;9.40;99.90;;;;;;4967029;28;101389;-75
2023/03/29 07:53:23;;;;;;;13.02;10.02;;;9.40;99.90;;;;;;4935699;28;99134;-75
2023/03/29 07:55:53;;;;;;;13.27;9.52;;;9.50;99.90;;;;;;4966963;28;98679;-75
2023/03/29 07:58:43;;;;;;;11.15;9.88;;;9.60;99.90;;;;;;4922952;28;99824;-75
2023/03/29 08:01:14;;;;;;;16.63;9.98;;;9.70;99.90;;;;;;4951019;28;102025;-75
2023/03/29 08:04:03;;;;;;;13.13;9.38;;;9.80;99.90;;;;;;4963856;28;98653;-75
2023/03/29 08:06:49;;;;;;;10.65;9.18;;;9.90;99.90;;;;;;4952694;28;98501;-76
2023/03/29 08:09:17;;;;;;;10.95;9.55;;;10.10;99.90;;;;;;4950902;28;100901;-75
2023/03/29 08:11:44;;;;;;;11.10;9.23;;;10.10;99.90;;;;;;4951031;28;101621;-75
2023/03/29 08:14:23;;;;;;;12.05;7.90;;;10.20;99.90;;;;;;4938382;28;98687;-75
2023/03/29 08:16:56;;;;;;;11.83;8.30;;;10.30;99.90;;;;;;4955568;28;97909;-75
2023/03/29 08:19:24;;;;;;;10.38;8.02;;;10.30;99.90;;;;;;4937974;28;101205;-75
2023/03/29 08:22:06;;;;;;;12.85;9.07;;;10.40;99.90;;;;;;4939697;28;101252;-75
2023/03/29 08:25:06;;;;;;;11.35;8.70;;;10.50;99.90;;;;;;4942754;28;99775;-75
2023/03/29 08:27:38;;;;;;;12.90;8.93;;;10.50;99.90;;;;;;4971025;28;99174;-75
2023/03/29 08:30:08;;;;;;;10.95;8.57;;;10.50;99.90;;;;;;4968716;28;100397;-75
2023/03/29 08:32:38;;;;;;;11.23;8.35;;;10.60;99.90;;;;;;4970189;28;101364;-76
2023/03/29 08:35:08;;;;;;;11.93;8.55;;;10.70;99.90;;;;;;4938222;28;98577;-76
2023/03/29 08:37:41;;;;;;;8.75;7.00;;;10.70;99.90;;;;;;4954220;28;98585;-76
2023/03/29 08:40:30;;;;;;;10.10;8.05;;;10.70;99.90;;;;;;4970081;28;101853;-75
2023/03/29 08:43:15;;;;;;;8.45;7.60;;;10.80;99.90;;;;;;4953865;28;101400;-75
2023/03/29 08:46:20;;;;;;;11.85;8.15;;;10.80;99.90;;;;;;4955078;28;98464;-75
2023/03/29 08:48:53;;;;;;;11.23;8.10;;;10.90;99.90;;;;;;4954168;28;98866;-75
2023/03/29 08:51:32;;;;;;;11.40;8.20;;;11.00;99.90;;;;;;4953192;28;102529;-75
2023/03/29 08:54:04;;;;;;;9.70;7.88;;;11.00;99.90;;;;;;4969962;28;102519;-75
2023/03/29 08:56:51;;;;;;;12.30;8.40;;;11.10;99.90;;;;;;4970217;28;98625;-75
2023/03/29 08:59:31;;;;;;;9.05;7.72;;;11.20;99.90;;;;;;4954040;28;98791;-75
2023/03/29 09:02:03;;;;;;;10.52;7.80;;;11.30;99.90;;;;;;4953460;28;101386;-75
2023/03/29 09:04:34;;;;;;;10.68;8.10;;;11.50;99.90;;;;;;4953509;28;101035;-75
2023/03/29 09:07:11;;;;;;;8.85;7.15;;;11.60;99.90;;;;;;4953767;28;98523;-75
2023/03/29 09:09:42;;;;;;;8.70;7.00;;;11.70;99.90;;;;;;4954160;28;97921;-75
2023/03/29 09:12:34;;;;;;;10.70;7.18;;;11.90;99.90;;;;;;4938702;28;101775;-75
2023/03/29 09:15:07;;;;;;;7.30;6.60;;;12.20;99.90;;;;;;4953594;28;100206;-75
2023/03/29 09:17:36;;;;;;;7.22;6.45;;;12.50;99.90;;;;;;4953340;28;99361;-75
2023/03/29 09:20:36;;;;;;;8.30;7.00;;;12.70;99.90;;;;;;4953669;28;98585;-76
2023/03/29 09:23:12;;;;;;;8.43;6.60;;;13.10;99.90;;;;;;4953095;28;101701;-75
2023/03/29 09:26:29;;;;;;;11.40;6.40;;;13.30;99.90;;;;;;4941720;28;99596;-76
2023/03/29 09:29:22;;;;;;;10.80;7.22;;;13.30;99.90;;;;;;4969256;28;98592;-76
2023/03/29 09:31:52;;;;;;;8.82;6.50;;;13.40;99.90;;;;;;4953377;28;98687;-75
2023/03/29 09:34:29;;;;;;;7.30;6.50;;;13.60;99.90;;;;;;4936761;28;101800;-76
2023/03/29 09:37:05;;;;;;;7.50;6.53;;;13.80;99.90;;;;;;4953391;28;101102;-76
2023/03/29 09:39:32;;;;;;;7.90;6.55;;;13.90;99.90;;;;;;4954985;28;98623;-76
2023/03/29 09:42:10;;;;;;;8.20;6.88;;;14.20;99.90;;;;;;4953192;28;98570;-75
2023/03/29 09:44:43;;;;;;;10.05;7.07;;;14.50;99.90;;;;;;4952574;28;102315;-76
2023/03/29 09:47:29;;;;;;;8.77;6.60;;;14.70;99.90;;;;;;4968118;28;100756;-76
2023/03/29 09:50:05;;;;;;;7.13;6.43;;;15.00;99.90;;;;;;4937361;28;98756;-75
2023/03/29 09:52:37;;;;;;;7.10;6.22;;;15.20;99.90;;;;;;4953162;28;98536;-76
2023/03/29 09:55:14;;;;;;;7.53;6.30;;;15.20;99.90;;;;;;4952440;28;101727;-76
2023/03/29 09:57:51;;;;;;;6.95;5.88;;;15.20;99.90;;;;;;4952665;28;101409;-75
2023/03/29 10:00:19;;;;;;;7.85;6.18;;;15.20;99.90;;;;;;4952682;28;98742;-76
2023/03/29 10:02:55;;;;;;;7.82;6.53;;;15.30;99.90;;;;;;4969724;28;97891;-76
2023/03/29 10:05:35;;;;;;;7.68;6.70;;;15.50;99.90;;;;;;4952601;28;101587;-76
2023/03/29 10:08:18;;;;;;;9.30;7.07;;;15.40;99.90;;;;;;4968667;28;100030;-76
2023/03/29 10:10:47;;;;;;;7.43;6.63;;;15.40;99.90;;;;;;4952393;28;99342;-76
2023/03/29 10:13:35;;;;;;;7.95;6.55;;;15.30;99.90;;;;;;4952482;28;98613;-76
2023/03/29 10:16:15;;;;;;;9.70;7.53;;;15.20;99.90;;;;;;4968955;28;99912;-76
2023/03/29 10:18:43;;;;;;;12.15;7.30;;;15.10;99.90;;;;;;4952387;28;101840;-76
2023/03/29 10:21:20;;;;;;;10.02;7.60;;;15.10;99.90;;;;;;4968685;28;98570;-75
2023/03/29 10:23:48;;;;;;;11.43;7.78;;;15.20;99.90;;;;;;4969126;28;98542;-76
2023/03/29 10:26:31;;;;;;;11.20;8.10;;;15.20;99.90;;;;;;4953425;28;99427;-76
2023/03/29 10:29:01;;;;;;;9.18;7.93;;;15.30;99.90;;;;;;4952312;28;101550;-76
2023/03/29 10:31:32;;;;;;;10.20;7.88;;;15.20;99.90;;;;;;4953942;28;98526;-75
2023/03/29 10:34:03;;;;;;;10.88;7.95;;;15.30;99.90;;;;;;4954195;28;98601;-75
2023/03/29 10:36:30;;;;;;;11.32;7.82;;;15.40;99.90;;;;;;4951573;28;100378;-75
2023/03/29 10:39:00;;;;;;;10.15;8.13;;;15.40;99.90;;;;;;4968166;28;108928;-76
2023/03/29 10:41:33;;;;;;;10.30;7.28;;;15.50;99.90;;;;;;4953688;28;98486;-76
2023/03/29 10:44:01;;;;;;;9.07;7.82;;;15.60;99.90;;;;;;4936172;28;99104;-76
2023/03/29 10:46:31;;;;;;;10.30;7.85;;;15.70;99.90;;;;;;4953262;28;99389;-76
2023/03/29 10:49:04;;;;;;;8.57;7.65;;;15.70;99.90;;;;;;4953200;28;98853;-76
2023/03/29 10:51:33;;;;;;;11.40;7.80;;;15.70;99.90;;;;;;4952000;28;98641;-75
2023/03/29 10:54:01;;;;;;;9.95;8.35;;;15.60;99.90;;;;;;4952634;28;97906;-76
2023/03/29 10:56:45;;;;;;;13.30;8.75;;;15.50;99.90;;;;;;4951663;28;101878;-75
2023/03/29 10:59:21;;;;;;;10.07;8.50;;;15.70;99.90;;;;;;4953320;28;99038;-75
2023/03/29 11:02:13;;;;;;;10.48;8.77;;;15.70;99.90;;;;;;4951868;28;99289;-75
2023/03/29 11:04:55;;;;;;;13.10;9.32;;;15.80;99.90;;;;;;4952237;28;98685;-76
2023/03/29 11:07:30;;;;;;;10.00;8.98;;;15.80;99.90;;;;;;4953031;28;99340;-76
2023/03/29 11:10:15;;;;;;;10.98;8.85;;;16.00;99.90;;;;;;4951741;28;100253;-75
2023/03/29 11:12:52;;;;;;;9.50;8.20;;;16.20;99.90;;;;;;4952312;28;98520;-76
2023/03/29 11:15:56;;;;;;;9.90;7.70;;;16.40;99.90;;;;;;4953310;28;98540;-76
2023/03/29 11:18:39;;;;;;;9.85;8.25;;;16.60;99.90;;;;;;4951426;28;101829;-75
2023/03/29 11:21:21;;;;;;;9.48;8.50;;;16.70;99.90;;;;;;4951950;28;98923;-76
2023/03/29 11:24:06;;;;;;;13.35;10.25;;;16.80;99.90;;;;;;4968524;28;98609;-76
2023/03/29 11:26:57;;;;;;;9.75;8.80;;;17.00;99.90;;;;;;4952641;28;98551;-76
2023/03/29 11:29:51;;;;;;;9.48;8.35;;;17.10;99.90;;;;;;4952127;28;100094;-76
2023/03/29 11:32:47;;;;;;;11.88;9.10;;;17.20;99.90;;;;;;4943765;28;102461;-76
2023/03/29 11:35:38;;;;;;;10.52;9.10;;;17.40;99.90;;;;;;4953122;28;98610;-76
2023/03/29 11:38:12;;;;;;;10.02;8.68;;;17.50;99.90;;;;;;4951510;28;98668;-76
2023/03/29 11:40:47;;;;;;;10.50;8.50;;;17.50;99.90;;;;;;4951394;28;102059;-76
2023/03/29 11:43:41;;;;;;;9.40;7.38;;;17.60;99.90;;;;;;4951489;28;101590;-76
2023/03/29 11:46:51;;;;;;;8.82;7.97;;;17.70;99.90;;;;;;4951749;28;98563;-75
2023/03/29 11:49:22;;;;;;;8.93;7.05;;;17.80;99.90;;;;;;4878293;28;97976;-76
2023/03/29 11:52:02;;;;;;;8.95;7.45;;;17.70;99.90;;;;;;4957894;28;99343;-76
2023/03/29 11:54:39;;;;;;;8.27;7.47;;;17.70;99.90;;;;;;4970922;28;101522;-76
2023/03/29 11:57:27;;;;;;;10.27;7.80;;;17.90;99.90;;;;;;4956389;28;99435;-75
2023/03/29 12:00:13;;;;;;;8.15;7.28;;;18.10;99.90;;;;;;4971351;28;98624;-76
2023/03/29 12:02:49;;;;;;;8.85;7.80;;;18.10;99.90;;;;;;4955829;28;99295;-76
2023/03/29 12:05:40;;;;;;;8.68;7.53;;;18.20;99.90;;;;;;4956075;28;98747;-76
2023/03/29 12:08:21;;;;;;;6.75;6.07;;;18.30;99.90;;;;;;4956417;28;98570;-76
2023/03/29 12:11:21;;;;;;;8.45;6.25;;;18.40;99.70;;;;;;4954415;28;98495;-75
2023/03/29 12:14:16;;;;;;;7.75;6.97;;;18.40;99.60;;;;;;4923367;28;99344;-75
2023/03/29 12:16:48;;;;;;;7.15;6.55;;;18.50;99.40;;;;;;4950352;28;99312;-75
2023/03/29 12:19:37;;;;;;;8.75;6.97;;;18.40;99.60;;;;;;4971315;28;98596;-76
2023/03/29 12:22:08;;;;;;;8.60;6.60;;;18.50;99.60;;;;;;4956314;28;98530;-76
2023/03/29 12:24:42;;;;;;;7.65;5.75;;;18.30;99.50;;;;;;4953682;28;102460;-76
2023/03/29 12:27:19;;;;;;;6.78;5.93;;;18.30;99.50;;;;;;4954189;28;100723;-76
2023/03/29 12:30:29;;;;;;;7.22;6.15;;;18.30;99.60;;;;;;4970584;28;98649;-76
2023/03/29 12:33:32;;;;;;;9.75;6.50;;;18.40;99.20;;;;;;4970612;28;98601;-76
2023/03/29 12:36:42;;;;;;;;;;;18.40;99.30;;;;;;4894803;28;100042;-75
2023/03/29 12:39:30;;;;;;;6.97;5.97;;;18.30;99.60;;;;;;4956735;28;98620;-76
2023/03/29 12:42:19;;;;;;;6.75;6.13;;;18.50;99.70;;;;;;4955967;28;98601;-76
2023/03/29 12:45:38;;;;;;;6.90;6.00;;;18.80;99.40;;;;;;4970840;28;97816;-75
2023/03/29 12:48:13;;;;;;;7.07;5.95;;;19.00;98.80;;;;;;4955535;28;99262;-76
2023/03/29 12:50:52;;;;;;;6.88;6.00;;;18.90;98.90;;;;;;4955001;28;99021;-76
2023/03/29 12:53:25;;;;;;;9.45;6.97;;;18.90;98.80;;;;;;4955385;28;99276;-76
2023/03/29 12:55:55;;;;;;;;;;;18.90;98.90;;;;;;4955008;28;98592;-76
2023/03/29 12:58:37;;;;;;;6.78;5.78;;;18.70;98.80;;;;;;4971254;28;101910;-76
2023/03/29 13:01:25;;;;;;;8.77;6.60;;;18.80;99.10;;;;;;4955002;28;99017;-76
2023/03/29 13:04:13;;;;;;;7.38;6.50;;;18.90;98.80;;;;;;4955562;28;98477;-76
2023/03/29 13:07:01;;;;;;;6.45;5.63;;;19.00;98.80;;;;;;4955574;28;98940;-76
2023/03/29 13:09:46;;;;;;;10.02;6.30;;;18.90;98.60;;;;;;4954999;28;99211;-75
2023/03/29 13:12:39;;;;;;;5.75;5.25;;;19.10;98.70;;;;;;4970229;28;101616;-76
2023/03/29 13:15:13;;;;;;;6.00;5.38;;;19.10;98.20;;;;;;4954060;28;98566;-75
2023/03/29 13:17:56;;;;;;;6.15;5.35;;;19.10;98.30;;;;;;4954899;28;99140;-75
2023/03/29 13:20:51;;;;;;;6.40;5.80;;;19.10;98.00;;;;;;4954564;28;99878;-76
2023/03/29 13:23:21;;;;;;;8.15;5.55;;;19.10;97.90;;;;;;4980970;28;102250;-76
2023/03/29 13:26:01;;;;;;;6.57;5.43;;;19.10;98.10;;;;;;4969889;28;98651;-75
2023/03/29 13:28:51;;;;;;;6.07;5.22;;;19.00;98.00;;;;;;4954044;28;98492;-76
2023/03/29 13:31:27;;;;;;;7.43;5.85;;;19.10;98.10;;;;;;4953021;28;101814;-76